sensor_id;sensor_type;location;lat;lon;timestamp;P1;durP1;ratioP1;P2;durP2;ratioP2
72791;SDS011;60907;53.268;8.764;2022-10-15T00:02:11;39.50;;;15.40;;
72791;SDS011;60907;53.268;8.764;2022-10-15T00:04:37;34.70;;;14.73;;
72791;SDS011;60907;53.268;8.764;2022-10-15T00:07:02;42.30;;;15.45;;
72791;SDS011;60907;53.268;8.764;2022-10-15T00:09:28;42.65;;;15.48;;
72791;SDS011;60907;53.268;8.764;2022-10-15T00:11:54;34.15;;;13.90;;
72791;SDS011;60907;53.268;8.764;2022-10-15T00:14:19;44.30;;;15.40;;
72791;SDS011;60907;53.268;8.764;2022-10-15T00:16:45;42.55;;;15.88;;
72791;SDS011;60907;53.268;8.764;2022-10-15T00:19:10;42.95;;;16.20;;
72791;SDS011;60907;53.268;8.764;2022-10-15T00:21:36;45.00;;;15.88;;
72791;SDS011;60907;53.268;8.764;2022-10-15T00:24:02;44.10;;;16.83;;
72791;SDS011;60907;53.268;8.764;2022-10-15T00:26:28;43.78;;;15.95;;
72791;SDS011;60907;53.268;8.764;2022-10-15T00:28:55;37.83;;;15.68;;
72791;SDS011;60907;53.268;8.764;2022-10-15T00:31:22;41.33;;;15.60;;
72791;SDS011;60907;53.268;8.764;2022-10-15T00:33:50;45.20;;;16.98;;
72791;SDS011;60907;53.268;8.764;2022-10-15T00:36:17;39.22;;;14.43;;
72791;SDS011;60907;53.268;8.764;2022-10-15T00:38:47;44.17;;;17.10;;
72791;SDS011;60907;53.268;8.764;2022-10-15T00:41:15;41.10;;;16.23;;
72791;SDS011;60907;53.268;8.764;2022-10-15T00:43:46;48.70;;;16.48;;
72791;SDS011;60907;53.268;8.764;2022-10-15T00:46:24;43.95;;;16.55;;
72791;SDS011;60907;53.268;8.764;2022-10-15T00:48:55;43.45;;;16.67;;
72791;SDS011;60907;53.268;8.764;2022-10-15T00:51:23;43.97;;;15.60;;
72791;SDS011;60907;53.268;8.764;2022-10-15T00:53:54;44.13;;;16.10;;
72791;SDS011;60907;53.268;8.764;2022-10-15T00:56:20;40.55;;;15.68;;
72791;SDS011;60907;53.268;8.764;2022-10-15T00:58:46;39.30;;;15.35;;
72791;SDS011;60907;53.268;8.764;2022-10-15T01:01:12;42.10;;;17.75;;
72791;SDS011;60907;53.268;8.764;2022-10-15T01:03:37;45.65;;;16.10;;
72791;SDS011;60907;53.268;8.764;2022-10-15T01:06:03;45.33;;;16.42;;
72791;SDS011;60907;53.268;8.764;2022-10-15T01:08:29;45.92;;;15.35;;
72791;SDS011;60907;53.268;8.764;2022-10-15T01:16:21;46.90;;;16.63;;
72791;SDS011;60907;53.268;8.764;2022-10-15T01:18:56;53.63;;;17.33;;
72791;SDS011;60907;53.268;8.764;2022-10-15T01:21:27;49.45;;;17.00;;
72791;SDS011;60907;53.268;8.764;2022-10-15T01:26:57;56.58;;;19.48;;
72791;SDS011;60907;53.268;8.764;2022-10-15T01:35:12;63.33;;;19.55;;
72791;SDS011;60907;53.268;8.764;2022-10-15T01:38:09;68.28;;;21.15;;
72791;SDS011;60907;53.268;8.764;2022-10-15T01:43:43;76.88;;;22.17;;
72791;SDS011;60907;53.268;8.764;2022-10-15T01:46:22;81.55;;;23.67;;
72791;SDS011;60907;53.268;8.764;2022-10-15T01:48:51;77.53;;;24.20;;
72791;SDS011;60907;53.268;8.764;2022-10-15T01:51:18;80.47;;;25.40;;
72791;SDS011;60907;53.268;8.764;2022-10-15T01:53:45;75.10;;;23.23;;
72791;SDS011;60907;53.268;8.764;2022-10-15T01:56:14;78.43;;;22.45;;
72791;SDS011;60907;53.268;8.764;2022-10-15T01:58:42;75.15;;;22.23;;
72791;SDS011;60907;53.268;8.764;2022-10-15T02:01:09;89.38;;;24.63;;
72791;SDS011;60907;53.268;8.764;2022-10-15T02:04:15;94.40;;;26.45;;
72791;SDS011;60907;53.268;8.764;2022-10-15T02:06:32;86.28;;;25.23;;
72791;SDS011;60907;53.268;8.764;2022-10-15T02:09:18;84.20;;;24.45;;
72791;SDS011;60907;53.268;8.764;2022-10-15T02:11:49;81.45;;;23.25;;
72791;SDS011;60907;53.268;8.764;2022-10-15T02:14:37;81.68;;;22.67;;
72791;SDS011;60907;53.268;8.764;2022-10-15T02:17:09;75.57;;;25.15;;
72791;SDS011;60907;53.268;8.764;2022-10-15T02:19:51;76.25;;;22.85;;
72791;SDS011;60907;53.268;8.764;2022-10-15T02:22:24;76.68;;;22.05;;
72791;SDS011;60907;53.268;8.764;2022-10-15T02:24:56;88.28;;;24.38;;
72791;SDS011;60907;53.268;8.764;2022-10-15T02:27:23;85.43;;;23.55;;
72791;SDS011;60907;53.268;8.764;2022-10-15T02:29:51;96.13;;;26.08;;
72791;SDS011;60907;53.268;8.764;2022-10-15T02:32:18;86.57;;;24.40;;
72791;SDS011;60907;53.268;8.764;2022-10-15T02:34:45;85.35;;;24.23;;
72791;SDS011;60907;53.268;8.764;2022-10-15T02:37:11;85.22;;;24.77;;
72791;SDS011;60907;53.268;8.764;2022-10-15T02:39:37;90.72;;;22.67;;
72791;SDS011;60907;53.268;8.764;2022-10-15T02:42:02;86.53;;;23.55;;
72791;SDS011;60907;53.268;8.764;2022-10-15T02:44:28;74.95;;;22.23;;
72791;SDS011;60907;53.268;8.764;2022-10-15T02:46:54;80.63;;;22.55;;
72791;SDS011;60907;53.268;8.764;2022-10-15T02:49:20;87.63;;;23.30;;
72791;SDS011;60907;53.268;8.764;2022-10-15T02:51:45;88.73;;;23.97;;
72791;SDS011;60907;53.268;8.764;2022-10-15T02:54:11;94.13;;;24.03;;
72791;SDS011;60907;53.268;8.764;2022-10-15T02:56:36;93.03;;;24.30;;
72791;SDS011;60907;53.268;8.764;2022-10-15T02:59:03;85.72;;;24.23;;
72791;SDS011;60907;53.268;8.764;2022-10-15T03:01:30;88.88;;;23.00;;
72791;SDS011;60907;53.268;8.764;2022-10-15T03:03:55;83.78;;;25.70;;
72791;SDS011;60907;53.268;8.764;2022-10-15T03:06:21;85.90;;;24.93;;
72791;SDS011;60907;53.268;8.764;2022-10-15T03:08:46;86.72;;;23.52;;
72791;SDS011;60907;53.268;8.764;2022-10-15T03:11:12;86.68;;;24.50;;
72791;SDS011;60907;53.268;8.764;2022-10-15T03:13:38;93.17;;;23.90;;
72791;SDS011;60907;53.268;8.764;2022-10-15T03:16:04;94.13;;;26.63;;
72791;SDS011;60907;53.268;8.764;2022-10-15T03:18:30;88.88;;;24.90;;
72791;SDS011;60907;53.268;8.764;2022-10-15T03:20:57;100.53;;;26.02;;
72791;SDS011;60907;53.268;8.764;2022-10-15T03:23:22;96.70;;;23.58;;
72791;SDS011;60907;53.268;8.764;2022-10-15T03:25:48;90.88;;;23.98;;
72791;SDS011;60907;53.268;8.764;2022-10-15T03:28:13;85.60;;;22.35;;
72791;SDS011;60907;53.268;8.764;2022-10-15T03:30:39;84.70;;;23.17;;
72791;SDS011;60907;53.268;8.764;2022-10-15T03:33:04;94.23;;;23.63;;
72791;SDS011;60907;53.268;8.764;2022-10-15T03:35:30;89.65;;;23.40;;
72791;SDS011;60907;53.268;8.764;2022-10-15T03:37:55;94.53;;;23.47;;
72791;SDS011;60907;53.268;8.764;2022-10-15T03:40:20;85.53;;;21.98;;
72791;SDS011;60907;53.268;8.764;2022-10-15T03:42:49;101.75;;;24.23;;
72791;SDS011;60907;53.268;8.764;2022-10-15T03:45:16;99.07;;;24.20;;
72791;SDS011;60907;53.268;8.764;2022-10-15T03:47:42;93.53;;;24.65;;
72791;SDS011;60907;53.268;8.764;2022-10-15T03:50:07;92.30;;;22.58;;
72791;SDS011;60907;53.268;8.764;2022-10-15T03:52:33;92.45;;;22.05;;
72791;SDS011;60907;53.268;8.764;2022-10-15T03:54:59;92.90;;;24.02;;
72791;SDS011;60907;53.268;8.764;2022-10-15T03:57:25;94.03;;;24.00;;
72791;SDS011;60907;53.268;8.764;2022-10-15T03:59:50;82.70;;;22.52;;
72791;SDS011;60907;53.268;8.764;2022-10-15T04:02:16;87.37;;;23.23;;
72791;SDS011;60907;53.268;8.764;2022-10-15T04:04:41;87.47;;;22.77;;
72791;SDS011;60907;53.268;8.764;2022-10-15T04:07:06;92.17;;;24.23;;
72791;SDS011;60907;53.268;8.764;2022-10-15T04:09:32;88.20;;;23.55;;
72791;SDS011;60907;53.268;8.764;2022-10-15T04:11:57;84.82;;;22.58;;
72791;SDS011;60907;53.268;8.764;2022-10-15T04:14:23;88.35;;;23.77;;
72791;SDS011;60907;53.268;8.764;2022-10-15T04:16:48;86.88;;;22.58;;
72791;SDS011;60907;53.268;8.764;2022-10-15T04:19:13;85.40;;;23.33;;
72791;SDS011;60907;53.268;8.764;2022-10-15T04:21:40;88.57;;;22.83;;
72791;SDS011;60907;53.268;8.764;2022-10-15T04:24:05;88.43;;;22.67;;
72791;SDS011;60907;53.268;8.764;2022-10-15T04:26:31;82.50;;;21.67;;
72791;SDS011;60907;53.268;8.764;2022-10-15T04:28:57;86.72;;;23.23;;
72791;SDS011;60907;53.268;8.764;2022-10-15T04:31:22;77.17;;;22.30;;
72791;SDS011;60907;53.268;8.764;2022-10-15T04:33:48;79.87;;;22.30;;
72791;SDS011;60907;53.268;8.764;2022-10-15T04:36:13;81.20;;;22.77;;
72791;SDS011;60907;53.268;8.764;2022-10-15T04:38:38;80.18;;;22.95;;
72791;SDS011;60907;53.268;8.764;2022-10-15T04:41:08;81.45;;;22.63;;
72791;SDS011;60907;53.268;8.764;2022-10-15T04:43:34;91.72;;;24.33;;
72791;SDS011;60907;53.268;8.764;2022-10-15T04:46:01;86.88;;;22.23;;
72791;SDS011;60907;53.268;8.764;2022-10-15T04:48:28;78.93;;;23.48;;
72791;SDS011;60907;53.268;8.764;2022-10-15T04:50:54;85.28;;;22.45;;
72791;SDS011;60907;53.268;8.764;2022-10-15T04:53:20;77.65;;;22.65;;
72791;SDS011;60907;53.268;8.764;2022-10-15T04:55:46;82.47;;;23.02;;
72791;SDS011;60907;53.268;8.764;2022-10-15T04:58:11;75.90;;;22.65;;
72791;SDS011;60907;53.268;8.764;2022-10-15T05:00:37;83.68;;;23.40;;
72791;SDS011;60907;53.268;8.764;2022-10-15T05:03:04;80.78;;;21.95;;
72791;SDS011;60907;53.268;8.764;2022-10-15T05:05:32;75.47;;;21.90;;
72791;SDS011;60907;53.268;8.764;2022-10-15T05:08:01;89.53;;;23.15;;
72791;SDS011;60907;53.268;8.764;2022-10-15T05:10:27;88.78;;;22.85;;
72791;SDS011;60907;53.268;8.764;2022-10-15T05:12:53;76.95;;;22.15;;
72791;SDS011;60907;53.268;8.764;2022-10-15T05:15:18;87.22;;;23.50;;
72791;SDS011;60907;53.268;8.764;2022-10-15T05:17:44;84.07;;;22.07;;
72791;SDS011;60907;53.268;8.764;2022-10-15T05:20:09;88.93;;;24.27;;
72791;SDS011;60907;53.268;8.764;2022-10-15T05:22:35;83.03;;;22.67;;
72791;SDS011;60907;53.268;8.764;2022-10-15T05:25:00;93.37;;;23.60;;
72791;SDS011;60907;53.268;8.764;2022-10-15T05:27:25;86.83;;;23.73;;
72791;SDS011;60907;53.268;8.764;2022-10-15T05:29:51;87.15;;;22.60;;
72791;SDS011;60907;53.268;8.764;2022-10-15T05:32:16;82.90;;;21.90;;
72791;SDS011;60907;53.268;8.764;2022-10-15T05:34:41;81.90;;;21.17;;
72791;SDS011;60907;53.268;8.764;2022-10-15T05:37:07;75.77;;;22.13;;
72791;SDS011;60907;53.268;8.764;2022-10-15T05:39:32;81.40;;;22.00;;
72791;SDS011;60907;53.268;8.764;2022-10-15T05:41:57;84.32;;;22.60;;
72791;SDS011;60907;53.268;8.764;2022-10-15T05:44:23;82.57;;;21.30;;
72791;SDS011;60907;53.268;8.764;2022-10-15T05:46:48;84.70;;;21.60;;
72791;SDS011;60907;53.268;8.764;2022-10-15T05:49:14;81.23;;;21.67;;
72791;SDS011;60907;53.268;8.764;2022-10-15T05:51:39;80.10;;;21.60;;
72791;SDS011;60907;53.268;8.764;2022-10-15T05:54:04;74.10;;;21.47;;
72791;SDS011;60907;53.268;8.764;2022-10-15T05:56:30;76.10;;;20.90;;
72791;SDS011;60907;53.268;8.764;2022-10-15T05:58:56;77.67;;;20.03;;
72791;SDS011;60907;53.268;8.764;2022-10-15T06:01:21;78.90;;;20.92;;
72791;SDS011;60907;53.268;8.764;2022-10-15T06:03:47;77.18;;;23.05;;
72791;SDS011;60907;53.268;8.764;2022-10-15T06:06:13;85.68;;;22.55;;
72791;SDS011;60907;53.268;8.764;2022-10-15T06:08:39;81.35;;;21.15;;
72791;SDS011;60907;53.268;8.764;2022-10-15T06:11:05;81.43;;;21.33;;
72791;SDS011;60907;53.268;8.764;2022-10-15T06:13:30;69.53;;;20.20;;
72791;SDS011;60907;53.268;8.764;2022-10-15T06:15:55;69.27;;;19.27;;
72791;SDS011;60907;53.268;8.764;2022-10-15T06:18:21;72.35;;;19.90;;
72791;SDS011;60907;53.268;8.764;2022-10-15T06:20:52;76.80;;;20.97;;
72791;SDS011;60907;53.268;8.764;2022-10-15T06:23:18;71.07;;;20.02;;
72791;SDS011;60907;53.268;8.764;2022-10-15T06:25:44;70.68;;;21.20;;
72791;SDS011;60907;53.268;8.764;2022-10-15T06:28:09;71.82;;;20.20;;
72791;SDS011;60907;53.268;8.764;2022-10-15T06:30:35;66.32;;;19.23;;
72791;SDS011;60907;53.268;8.764;2022-10-15T06:33:01;69.75;;;19.95;;
72791;SDS011;60907;53.268;8.764;2022-10-15T06:35:26;66.53;;;20.40;;
72791;SDS011;60907;53.268;8.764;2022-10-15T06:37:54;75.43;;;20.92;;
72791;SDS011;60907;53.268;8.764;2022-10-15T06:40:20;74.95;;;21.45;;
72791;SDS011;60907;53.268;8.764;2022-10-15T06:42:45;72.47;;;21.35;;
72791;SDS011;60907;53.268;8.764;2022-10-15T06:45:11;60.63;;;18.50;;
72791;SDS011;60907;53.268;8.764;2022-10-15T06:47:37;71.68;;;21.67;;
72791;SDS011;60907;53.268;8.764;2022-10-15T06:52:30;71.22;;;20.85;;
72791;SDS011;60907;53.268;8.764;2022-10-15T06:54:56;67.53;;;19.13;;
72791;SDS011;60907;53.268;8.764;2022-10-15T06:57:21;69.18;;;19.60;;
72791;SDS011;60907;53.268;8.764;2022-10-15T06:59:49;72.78;;;22.17;;
72791;SDS011;60907;53.268;8.764;2022-10-15T07:02:14;65.80;;;19.95;;
72791;SDS011;60907;53.268;8.764;2022-10-15T07:04:41;74.10;;;21.98;;
72791;SDS011;60907;53.268;8.764;2022-10-15T07:07:07;70.38;;;21.10;;
72791;SDS011;60907;53.268;8.764;2022-10-15T07:09:32;67.15;;;21.63;;
72791;SDS011;60907;53.268;8.764;2022-10-15T07:11:59;69.95;;;20.90;;
72791;SDS011;60907;53.268;8.764;2022-10-15T07:14:24;74.55;;;21.35;;
72791;SDS011;60907;53.268;8.764;2022-10-15T07:16:50;64.20;;;19.20;;
72791;SDS011;60907;53.268;8.764;2022-10-15T07:19:15;74.15;;;20.88;;
72791;SDS011;60907;53.268;8.764;2022-10-15T07:21:41;78.13;;;21.85;;
72791;SDS011;60907;53.268;8.764;2022-10-15T07:24:06;71.68;;;22.08;;
72791;SDS011;60907;53.268;8.764;2022-10-15T07:26:32;68.78;;;20.98;;
72791;SDS011;60907;53.268;8.764;2022-10-15T07:28:57;67.45;;;20.45;;
72791;SDS011;60907;53.268;8.764;2022-10-15T07:31:23;70.78;;;21.40;;
72791;SDS011;60907;53.268;8.764;2022-10-15T07:33:48;63.25;;;19.27;;
72791;SDS011;60907;53.268;8.764;2022-10-15T07:36:13;64.40;;;20.80;;
72791;SDS011;60907;53.268;8.764;2022-10-15T07:38:39;70.93;;;20.85;;
72791;SDS011;60907;53.268;8.764;2022-10-15T07:41:05;65.75;;;20.75;;
72791;SDS011;60907;53.268;8.764;2022-10-15T07:43:31;64.43;;;20.63;;
72791;SDS011;60907;53.268;8.764;2022-10-15T07:45:57;69.10;;;22.45;;
72791;SDS011;60907;53.268;8.764;2022-10-15T07:48:22;69.17;;;20.83;;
72791;SDS011;60907;53.268;8.764;2022-10-15T07:51:02;59.45;;;19.33;;
72791;SDS011;60907;53.268;8.764;2022-10-15T07:53:29;80.03;;;21.13;;
72791;SDS011;60907;53.268;8.764;2022-10-15T07:55:58;65.47;;;20.05;;
72791;SDS011;60907;53.268;8.764;2022-10-15T07:58:30;71.18;;;20.80;;
72791;SDS011;60907;53.268;8.764;2022-10-15T08:00:58;59.50;;;19.98;;
72791;SDS011;60907;53.268;8.764;2022-10-15T08:03:25;66.60;;;20.63;;
72791;SDS011;60907;53.268;8.764;2022-10-15T08:05:50;67.72;;;19.63;;
72791;SDS011;60907;53.268;8.764;2022-10-15T08:08:17;67.93;;;19.88;;
72791;SDS011;60907;53.268;8.764;2022-10-15T08:10:44;68.57;;;20.67;;
72791;SDS011;60907;53.268;8.764;2022-10-15T08:13:09;64.05;;;20.08;;
72791;SDS011;60907;53.268;8.764;2022-10-15T08:15:37;63.72;;;19.73;;
72791;SDS011;60907;53.268;8.764;2022-10-15T08:18:03;57.60;;;19.23;;
72791;SDS011;60907;53.268;8.764;2022-10-15T08:20:29;56.33;;;19.60;;
72791;SDS011;60907;53.268;8.764;2022-10-15T08:22:54;68.30;;;20.63;;
72791;SDS011;60907;53.268;8.764;2022-10-15T08:25:19;58.43;;;17.27;;
72791;SDS011;60907;53.268;8.764;2022-10-15T08:27:45;59.20;;;19.60;;
72791;SDS011;60907;53.268;8.764;2022-10-15T08:30:10;51.03;;;17.73;;
72791;SDS011;60907;53.268;8.764;2022-10-15T08:32:36;48.42;;;17.95;;
72791;SDS011;60907;53.268;8.764;2022-10-15T08:35:01;45.97;;;16.27;;
72791;SDS011;60907;53.268;8.764;2022-10-15T08:37:26;42.65;;;15.32;;
72791;SDS011;60907;53.268;8.764;2022-10-15T08:39:52;37.60;;;14.00;;
72791;SDS011;60907;53.268;8.764;2022-10-15T08:42:21;39.10;;;16.02;;
72791;SDS011;60907;53.268;8.764;2022-10-15T08:44:54;35.72;;;13.55;;
72791;SDS011;60907;53.268;8.764;2022-10-15T08:50:24;33.00;;;12.27;;
72791;SDS011;60907;53.268;8.764;2022-10-15T08:52:52;35.33;;;13.65;;
72791;SDS011;60907;53.268;8.764;2022-10-15T08:55:19;29.88;;;11.85;;
72791;SDS011;60907;53.268;8.764;2022-10-15T08:58:02;33.92;;;14.55;;
72791;SDS011;60907;53.268;8.764;2022-10-15T09:01:00;33.17;;;12.30;;
72791;SDS011;60907;53.268;8.764;2022-10-15T09:03:38;32.00;;;13.45;;
72791;SDS011;60907;53.268;8.764;2022-10-15T09:14:25;29.50;;;12.63;;
72791;SDS011;60907;53.268;8.764;2022-10-15T09:16:53;33.83;;;12.85;;
72791;SDS011;60907;53.268;8.764;2022-10-15T09:19:20;37.25;;;14.13;;
72791;SDS011;60907;53.268;8.764;2022-10-15T09:21:47;35.53;;;13.45;;
72791;SDS011;60907;53.268;8.764;2022-10-15T09:24:16;36.75;;;14.30;;
72791;SDS011;60907;53.268;8.764;2022-10-15T09:26:48;37.28;;;13.77;;
72791;SDS011;60907;53.268;8.764;2022-10-15T09:37:26;19.95;;;9.75;;
72791;SDS011;60907;53.268;8.764;2022-10-15T09:42:45;23.00;;;8.95;;
72791;SDS011;60907;53.268;8.764;2022-10-15T09:45:14;26.27;;;9.95;;
72791;SDS011;60907;53.268;8.764;2022-10-15T09:47:40;28.33;;;9.73;;
72791;SDS011;60907;53.268;8.764;2022-10-15T09:58:25;23.95;;;11.00;;
72791;SDS011;60907;53.268;8.764;2022-10-15T10:01:01;26.67;;;9.65;;
72791;SDS011;60907;53.268;8.764;2022-10-15T10:03:29;23.05;;;9.77;;
72791;SDS011;60907;53.268;8.764;2022-10-15T10:08:28;27.10;;;11.15;;
72791;SDS011;60907;53.268;8.764;2022-10-15T10:10:59;21.77;;;10.10;;
72791;SDS011;60907;53.268;8.764;2022-10-15T10:13:48;24.38;;;10.18;;
72791;SDS011;60907;53.268;8.764;2022-10-15T10:16:16;23.13;;;10.40;;
72791;SDS011;60907;53.268;8.764;2022-10-15T10:18:42;28.05;;;11.05;;
72791;SDS011;60907;53.268;8.764;2022-10-15T10:21:21;25.08;;;10.57;;
72791;SDS011;60907;53.268;8.764;2022-10-15T10:23:48;25.05;;;9.98;;
72791;SDS011;60907;53.268;8.764;2022-10-15T10:26:13;26.93;;;12.87;;
72791;SDS011;60907;53.268;8.764;2022-10-15T10:28:42;29.58;;;12.35;;
72791;SDS011;60907;53.268;8.764;2022-10-15T10:31:25;29.80;;;12.80;;
72791;SDS011;60907;53.268;8.764;2022-10-15T10:34:09;29.42;;;13.10;;
72791;SDS011;60907;53.268;8.764;2022-10-15T10:49:39;23.58;;;11.45;;
72791;SDS011;60907;53.268;8.764;2022-10-15T10:52:20;28.00;;;12.95;;
72791;SDS011;60907;53.268;8.764;2022-10-15T10:54:49;29.15;;;13.07;;
72791;SDS011;60907;53.268;8.764;2022-10-15T11:00:19;30.30;;;14.25;;
72791;SDS011;60907;53.268;8.764;2022-10-15T11:02:50;31.20;;;14.50;;
72791;SDS011;60907;53.268;8.764;2022-10-15T11:05:18;28.42;;;13.90;;
72791;SDS011;60907;53.268;8.764;2022-10-15T11:10:47;33.38;;;15.70;;
72791;SDS011;60907;53.268;8.764;2022-10-15T11:19:00;32.15;;;14.25;;
72791;SDS011;60907;53.268;8.764;2022-10-15T11:24:15;34.25;;;15.10;;
72791;SDS011;60907;53.268;8.764;2022-10-15T11:29:35;31.45;;;15.65;;
72791;SDS011;60907;53.268;8.764;2022-10-15T11:40:29;35.88;;;17.83;;
72791;SDS011;60907;53.268;8.764;2022-10-15T11:43:02;34.95;;;15.40;;
72791;SDS011;60907;53.268;8.764;2022-10-15T11:48:12;34.17;;;16.52;;
72791;SDS011;60907;53.268;8.764;2022-10-15T11:50:49;32.33;;;15.60;;
72791;SDS011;60907;53.268;8.764;2022-10-15T11:56:25;29.10;;;14.23;;
72791;SDS011;60907;53.268;8.764;2022-10-15T11:58:54;30.55;;;15.43;;
72791;SDS011;60907;53.268;8.764;2022-10-15T12:01:28;30.45;;;15.10;;
72791;SDS011;60907;53.268;8.764;2022-10-15T12:03:59;30.25;;;15.93;;
72791;SDS011;60907;53.268;8.764;2022-10-15T12:06:29;27.83;;;15.68;;
72791;SDS011;60907;53.268;8.764;2022-10-15T12:09:03;31.38;;;15.55;;
72791;SDS011;60907;53.268;8.764;2022-10-15T12:11:38;32.58;;;16.70;;
72791;SDS011;60907;53.268;8.764;2022-10-15T12:14:16;27.33;;;14.60;;
72791;SDS011;60907;53.268;8.764;2022-10-15T12:21:41;34.33;;;15.73;;
72791;SDS011;60907;53.268;8.764;2022-10-15T12:29:39;30.05;;;13.60;;
72791;SDS011;60907;53.268;8.764;2022-10-15T12:32:15;28.13;;;12.77;;
72791;SDS011;60907;53.268;8.764;2022-10-15T12:34:49;26.58;;;13.60;;
72791;SDS011;60907;53.268;8.764;2022-10-15T12:37:20;36.75;;;15.27;;
72791;SDS011;60907;53.268;8.764;2022-10-15T12:39:49;28.00;;;12.68;;
72791;SDS011;60907;53.268;8.764;2022-10-15T12:44:51;24.77;;;13.18;;
72791;SDS011;60907;53.268;8.764;2022-10-15T12:47:44;24.75;;;12.15;;
72791;SDS011;60907;53.268;8.764;2022-10-15T12:50:18;17.23;;;9.30;;
72791;SDS011;60907;53.268;8.764;2022-10-15T12:53:00;17.65;;;8.75;;
72791;SDS011;60907;53.268;8.764;2022-10-15T12:55:38;21.40;;;9.85;;
72791;SDS011;60907;53.268;8.764;2022-10-15T13:03:42;19.27;;;9.93;;
72791;SDS011;60907;53.268;8.764;2022-10-15T13:11:17;15.15;;;8.77;;
72791;SDS011;60907;53.268;8.764;2022-10-15T13:13:45;15.50;;;8.13;;
72791;SDS011;60907;53.268;8.764;2022-10-15T13:16:11;19.35;;;8.57;;
72791;SDS011;60907;53.268;8.764;2022-10-15T13:18:37;16.42;;;9.38;;
72791;SDS011;60907;53.268;8.764;2022-10-15T13:21:03;16.20;;;7.75;;
72791;SDS011;60907;53.268;8.764;2022-10-15T13:23:29;19.35;;;10.00;;
72791;SDS011;60907;53.268;8.764;2022-10-15T13:26:12;19.90;;;9.43;;
72791;SDS011;60907;53.268;8.764;2022-10-15T13:28:43;19.42;;;9.82;;
72791;SDS011;60907;53.268;8.764;2022-10-15T13:31:14;19.70;;;9.85;;
72791;SDS011;60907;53.268;8.764;2022-10-15T13:33:54;16.58;;;8.27;;
72791;SDS011;60907;53.268;8.764;2022-10-15T13:36:23;20.58;;;9.07;;
72791;SDS011;60907;53.268;8.764;2022-10-15T13:38:57;16.50;;;9.27;;
72791;SDS011;60907;53.268;8.764;2022-10-15T13:43:57;19.48;;;9.23;;
72791;SDS011;60907;53.268;8.764;2022-10-15T13:46:29;18.02;;;9.63;;
72791;SDS011;60907;53.268;8.764;2022-10-15T13:48:57;17.92;;;10.68;;
72791;SDS011;60907;53.268;8.764;2022-10-15T13:51:24;18.08;;;9.40;;
72791;SDS011;60907;53.268;8.764;2022-10-15T13:53:53;17.98;;;9.82;;
72791;SDS011;60907;53.268;8.764;2022-10-15T13:56:22;21.50;;;10.48;;
72791;SDS011;60907;53.268;8.764;2022-10-15T13:58:53;20.63;;;9.82;;
72791;SDS011;60907;53.268;8.764;2022-10-15T14:01:19;25.45;;;11.32;;
72791;SDS011;60907;53.268;8.764;2022-10-15T14:03:53;20.13;;;10.70;;
72791;SDS011;60907;53.268;8.764;2022-10-15T14:06:23;20.98;;;11.75;;
72791;SDS011;60907;53.268;8.764;2022-10-15T14:08:50;23.25;;;12.57;;
72791;SDS011;60907;53.268;8.764;2022-10-15T14:11:17;24.95;;;12.20;;
72791;SDS011;60907;53.268;8.764;2022-10-15T14:13:53;23.70;;;12.63;;
72791;SDS011;60907;53.268;8.764;2022-10-15T14:18:51;25.88;;;13.00;;
72791;SDS011;60907;53.268;8.764;2022-10-15T14:21:20;26.70;;;13.10;;
72791;SDS011;60907;53.268;8.764;2022-10-15T14:23:59;25.08;;;12.88;;
72791;SDS011;60907;53.268;8.764;2022-10-15T14:26:30;27.38;;;14.18;;
72791;SDS011;60907;53.268;8.764;2022-10-15T14:28:56;23.85;;;12.43;;
72791;SDS011;60907;53.268;8.764;2022-10-15T14:31:44;25.48;;;13.45;;
72791;SDS011;60907;53.268;8.764;2022-10-15T14:34:26;26.08;;;14.27;;
72791;SDS011;60907;53.268;8.764;2022-10-15T14:36:52;31.60;;;15.52;;
72791;SDS011;60907;53.268;8.764;2022-10-15T14:39:24;29.25;;;14.38;;
72791;SDS011;60907;53.268;8.764;2022-10-15T14:42:02;31.30;;;15.32;;
72791;SDS011;60907;53.268;8.764;2022-10-15T14:44:47;30.70;;;15.65;;
72791;SDS011;60907;53.268;8.764;2022-10-15T14:47:18;28.50;;;14.95;;
72791;SDS011;60907;53.268;8.764;2022-10-15T14:49:45;29.83;;;16.08;;
72791;SDS011;60907;53.268;8.764;2022-10-15T14:52:12;30.38;;;16.10;;
72791;SDS011;60907;53.268;8.764;2022-10-15T14:54:43;29.88;;;15.00;;
72791;SDS011;60907;53.268;8.764;2022-10-15T14:57:19;30.42;;;16.23;;
72791;SDS011;60907;53.268;8.764;2022-10-15T14:59:48;33.95;;;15.32;;
72791;SDS011;60907;53.268;8.764;2022-10-15T15:02:16;32.67;;;16.20;;
72791;SDS011;60907;53.268;8.764;2022-10-15T15:04:44;34.50;;;16.38;;
72791;SDS011;60907;53.268;8.764;2022-10-15T15:07:16;34.35;;;16.30;;
72791;SDS011;60907;53.268;8.764;2022-10-15T15:09:45;36.35;;;15.43;;
72791;SDS011;60907;53.268;8.764;2022-10-15T15:12:30;38.63;;;17.50;;
72791;SDS011;60907;53.268;8.764;2022-10-15T15:14:56;36.53;;;16.33;;
72791;SDS011;60907;53.268;8.764;2022-10-15T15:17:25;34.05;;;16.98;;
72791;SDS011;60907;53.268;8.764;2022-10-15T15:19:52;33.63;;;16.33;;
72791;SDS011;60907;53.268;8.764;2022-10-15T15:22:22;40.15;;;17.58;;
72791;SDS011;60907;53.268;8.764;2022-10-15T15:24:51;36.88;;;17.50;;
72791;SDS011;60907;53.268;8.764;2022-10-15T15:27:21;38.87;;;17.60;;
72791;SDS011;60907;53.268;8.764;2022-10-15T15:29:51;33.85;;;15.65;;
72791;SDS011;60907;53.268;8.764;2022-10-15T15:32:17;35.60;;;16.75;;
72791;SDS011;60907;53.268;8.764;2022-10-15T15:34:43;36.08;;;16.65;;
72791;SDS011;60907;53.268;8.764;2022-10-15T15:37:12;35.38;;;16.85;;
72791;SDS011;60907;53.268;8.764;2022-10-15T15:39:39;36.75;;;17.42;;
72791;SDS011;60907;53.268;8.764;2022-10-15T15:42:05;36.25;;;17.48;;
72791;SDS011;60907;53.268;8.764;2022-10-15T15:44:30;37.60;;;16.42;;
72791;SDS011;60907;53.268;8.764;2022-10-15T15:46:55;36.63;;;17.10;;
72791;SDS011;60907;53.268;8.764;2022-10-15T15:49:21;36.88;;;16.67;;
72791;SDS011;60907;53.268;8.764;2022-10-15T15:51:46;32.72;;;15.95;;
72791;SDS011;60907;53.268;8.764;2022-10-15T15:54:12;37.65;;;15.57;;
72791;SDS011;60907;53.268;8.764;2022-10-15T15:56:37;33.97;;;15.57;;
72791;SDS011;60907;53.268;8.764;2022-10-15T15:59:04;32.10;;;14.75;;
72791;SDS011;60907;53.268;8.764;2022-10-15T16:01:30;30.17;;;13.97;;
72791;SDS011;60907;53.268;8.764;2022-10-15T16:03:55;26.83;;;13.03;;
72791;SDS011;60907;53.268;8.764;2022-10-15T16:06:21;31.90;;;14.23;;
72791;SDS011;60907;53.268;8.764;2022-10-15T16:08:46;27.47;;;13.27;;
72791;SDS011;60907;53.268;8.764;2022-10-15T16:11:11;29.08;;;13.35;;
72791;SDS011;60907;53.268;8.764;2022-10-15T16:13:37;30.73;;;14.47;;
72791;SDS011;60907;53.268;8.764;2022-10-15T16:16:03;26.40;;;13.10;;
72791;SDS011;60907;53.268;8.764;2022-10-15T16:18:29;27.55;;;12.10;;
72791;SDS011;60907;53.268;8.764;2022-10-15T16:20:54;26.37;;;12.27;;
72791;SDS011;60907;53.268;8.764;2022-10-15T16:23:19;26.27;;;12.40;;
72791;SDS011;60907;53.268;8.764;2022-10-15T16:25:45;26.77;;;11.90;;
72791;SDS011;60907;53.268;8.764;2022-10-15T16:28:10;28.83;;;12.20;;
72791;SDS011;60907;53.268;8.764;2022-10-15T16:30:36;27.42;;;12.02;;
72791;SDS011;60907;53.268;8.764;2022-10-15T16:33:01;25.27;;;11.30;;
72791;SDS011;60907;53.268;8.764;2022-10-15T16:35:27;26.50;;;12.05;;
72791;SDS011;60907;53.268;8.764;2022-10-15T16:37:52;27.43;;;11.73;;